METAR Data

Data at: 1131 UTC 24 May 2022

METAR for:K1P1 (Plymouth Muni, NH, US)
Text:K1P1 241115Z AUTO 00000KT 10SM -SN CLR 06/05 A3038 RMK AO2 T00600046
Temperature: 6.0°C ( 43°F)
Dewpoint: 4.6°C ( 40°F) [RH = 91%]
Pressure (altimeter):30.38 inches Hg (1028.9 mb)
Winds:calm
Visibility:10 or more sm (16+ km)
Ceiling:at least 12,000 feet AGL
Clouds:sky clear below 12,000 feet AGL
Weather:-SN (light snow)
QC Flag:automated observation with no human augmentation